Rimnicu Vilcea, Romania
Current Conditions -  °F | °C
As of 5:00 PM on Monday 24 Nov 2014 (Local Time) from LRSB Reporting Station
Overcast Overcast  
Wind Chill: 32°   Ceiling: 4100
Heat Index: 37°   Visibility: 6mi
Dew Point: 32°   Wind: 7mph
Humidity: 81%   Direction: 100°E
Pressure: 30.36"   Gusts: NA
Location:  45.11°N, 24.38°E
Report Text: LRSB 241400Z 10006KT 9999 BKN041 OVC070 03/00 Q1028
Loading
Personal Weather Stations






























Interactive Weather Map New forecast layout! Learn more

10-Day Weather Forecast

Advertisements
Track Severe Weather on mobile